Muito nublado (5-7 oitavos)
http://www.flightutilities.com

QR Code
SBPL 150900Z 12012KT 9999 BKN025 23/16 Q1016

Localidade: SBPL
PETROLINA - BRAZIL (PE)
Latitude: 09°21'54"S - Longitude: 040°33'59"W.
Declinação magnética: 22,59°W
Amanhecer: 08:17 UTC
Por do sol: 20:58 UTC
Boletim do: 15, as 09:00 UTC
sexta-feira 15 dezembro 2017 09:00 horário de Greenwich (Zulu).
Vento: direção = 120 graus, velocidade: 12 nôs (22 km/h) (6 m/s).
Pista 13, comprimento 9843 pés, altitude 1249 pés: Vento ao través 3 KT dereita - Vento eixo pista 12 KT frontal.
Pista 31, comprimento 9843 pés, altitude 1259 pés: Vento ao través 3 KT esquerda - Vento eixo pista 12 KT de cauda.
Visibilidade horizontal minima: 10 km ou mais.
Nuvens: Muito nublado (5-7 oitavos), a 2500 pés acima do Aeródromo (762 metros).
Temperatura: 23 graus Celsius (73 Fahrenheit). Ponto de orvalho: 16 graus Celsius (61 Fahrenheit). Umidade relativa 64,76 %.
QNH (pressão ao nível do mar): 1016 hPa (30,00 polegadas).
0:51
Confiabilidade do Metar - Tempo de emissão em horas e minutos
NOAA
Marginal Visual Flight Rules
12 KT
Vento
23/16
Temperatura / Ponto de orvalho
>10Km
Visibilidade horizontal minima
2500
Muito nublado (5-7 oitavos)
1016
Pressão ao nível do mar
22,59°W
Declinação magnética
08:17 Z
Amanhecer
20:58 Z
Por do sol
Mapa
Ver no Google Maps